Greenville, PA (16125)

5:36 PM EDT on July 03, 2015 (GMT -0400)
Hempfield township | | Change Station
CLOSE
Current Station
Personal Weather Station
Location: Greenville, PA
Elevation: 1168 ft
Nearby Weather Stations

Elev 1168 ft 41.41 °N, 80.35 °W | Updated 1 second ago

Partly Cloudy
Partly Cloudy
77.2 °F
Feels Like 79 °F
N
0.4
Wind Variable Wind from South
Gusts 2.5 mph

Today
High -- | Low -- °F
--% Chance of Precip.
Yesterday
High -- | Low -- °F
Precip. -- in
5:52 AM 8:58 PM
Waning Gibbous, 96% visible
Pressure 29.93 in
Visibility 10.0 miles
Clouds Few 4900 ft
Heat Index 79 °F
Dew Point 59 °F
Humidity 53%
Rainfall 0.00 in
Snow Depth Not available.
UV 2.0 out of 12
Pollen 4.60 out of 12
Air Quality Not available.
Flu Activity Not available.
METAR KGKJ 032053Z AUTO 19005KT 10SM FEW049 24/12 A2993 RMK AO2 SLP133 T02390122 58015 TSNO

More Conditions Fewer Conditions

Pressure 29.93 in
Visibility 10.0 miles
Clouds Few 4900 ft
Heat Index 79 °F
Dew Point 59 °F
Humidity 53%
Rainfall 0.00 in
Snow Depth Not available.
UV 2.0 out of 12
Pollen 4.60 out of 12
Air Quality Not available.
Flu Activity Not available.
METAR KGKJ 032053Z AUTO 19005KT 10SM FEW049 24/12 A2993 RMK AO2 SLP133 T02390122 58015 TSNO

More Conditions Fewer Conditions

10-Day Weather Forecast

×

Almanac

Astronomy

Jul. 03, 2015 Rise Set
Actual Time
Civil Twilight
Nautical Twilight
Astronomical Twilight
Moon
Length of Visible Light
Length of Day
Tomorrow will be .
, % of the Moon is Illuminated

Today's Extremes

State Highs State Lows

Community

WunderPhotos

Upload Photos

1,834,782 photos uploaded!

WunderBlogs® & News

Nearby

Air Quality

  Air Quality AQ Index Pollutant
Not available.

Snow Depth

Station Depth Elevation

Earthquake Activity

City Distance Mag. Time & Date
Minimum magnitude displayed is 2.5.

Coastal Water Temperatures

Place Temperature

Stations

Nearby Weather Stations

Station Location Temp. Windchill Dew Point Humidity Wind Precip. Elev Updated Type